Time;durP1;ratioP1;P1;durP2;ratioP2;P2;SDS_P1;SDS_P2;PMS_P1;PMS_P2;Temp;Humidity;BMP_temperature;BMP_pressure;BME280_temperature;BME280_humidity;BME280_pressure;Samples;Min_cycle;Max_cycle;Signal;HPM_P1;HPM_P2
2023/09/20 00:00:36;;;;;;;3.67;1.20;;;;;;;;;;5076108;28;20479;-69
2023/09/20 00:03:01;;;;;;;6.10;1.48;;;;;;;;;;5084369;28;20019;-69
2023/09/20 00:05:26;;;;;;;4.28;1.45;;;;;;;;;;5088433;28;20486;-69
2023/09/20 00:07:54;;;;;;;5.60;2.05;;;;;;;;;;5088287;28;20044;-69
2023/09/20 00:10:21;;;;;;;5.68;1.45;;;;;;;;;;5088328;28;20036;-69
2023/09/20 00:12:46;;;;;;;7.55;1.70;;;;;;;;;;5079170;28;20119;-69
2023/09/20 00:15:11;;;;;;;5.07;1.45;;;;;;;;;;5090186;28;20154;-69
2023/09/20 00:17:37;;;;;;;5.57;1.45;;;;;;;;;;5090162;28;20386;-68
2023/09/20 00:20:11;;;;;;;5.97;1.50;;;;;;;;;;5090364;28;20126;-70
2023/09/20 00:22:37;;;;;;;5.60;1.92;;;;;;;;;;5071919;28;20113;-68
2023/09/20 00:25:02;;;;;;;3.55;1.17;;;;;;;;;;5071184;28;20035;-69
2023/09/20 00:27:27;;;;;;;4.07;1.25;;;;;;;;;;5078359;28;20375;-70
2023/09/20 00:29:53;;;;;;;5.30;1.80;;;;;;;;;;5090099;28;20024;-70
2023/09/20 00:32:18;;;;;;;4.65;1.60;;;;;;;;;;5071666;28;20279;-70
2023/09/20 00:34:43;;;;;;;2.70;1.20;;;;;;;;;;5073582;28;20107;-70
2023/09/20 00:37:08;;;;;;;4.70;1.35;;;;;;;;;;5076835;28;20351;-70
2023/09/20 00:39:33;;;;;;;5.67;1.47;;;;;;;;;;5074784;28;20480;-70
2023/09/20 00:41:59;;;;;;;3.55;1.10;;;;;;;;;;5076570;28;20773;-70
2023/09/20 00:44:25;;;;;;;7.63;1.63;;;;;;;;;;5078339;28;20012;-70
2023/09/20 00:46:51;;;;;;;5.03;1.77;;;;;;;;;;5079766;28;20263;-69
2023/09/20 00:49:16;;;;;;;4.15;1.40;;;;;;;;;;5091033;28;20103;-69
2023/09/20 00:51:44;;;;;;;4.63;1.55;;;;;;;;;;5083764;28;20120;-71
2023/09/20 00:54:10;;;;;;;3.53;1.60;;;;;;;;;;5076318;28;20028;-68
2023/09/20 00:56:35;;;;;;;6.17;1.60;;;;;;;;;;5085929;28;20077;-68
2023/09/20 00:59:06;;;;;;;4.95;1.35;;;;;;;;;;5075187;28;20266;-68
2023/09/20 01:01:33;;;;;;;6.75;1.67;;;;;;;;;;5077010;28;20074;-68
2023/09/20 01:03:59;;;;;;;4.07;1.38;;;;;;;;;;5085493;28;20460;-68
2023/09/20 01:06:26;;;;;;;5.35;1.55;;;;;;;;;;5076456;28;20020;-68
2023/09/20 01:08:53;;;;;;;5.18;1.70;;;;;;;;;;5085874;28;20012;-68
2023/09/20 01:11:19;;;;;;;4.43;1.40;;;;;;;;;;5075495;28;20047;-68
2023/09/20 01:13:44;;;;;;;3.95;1.35;;;;;;;;;;5080296;28;20021;-68
2023/09/20 01:16:10;;;;;;;3.45;1.50;;;;;;;;;;5078156;28;20094;-68
2023/09/20 01:18:35;;;;;;;5.45;1.65;;;;;;;;;;5087283;28;20029;-68
2023/09/20 01:21:02;;;;;;;5.10;1.37;;;;;;;;;;5078778;28;20028;-69
2023/09/20 01:23:27;;;;;;;3.67;1.35;;;;;;;;;;5076858;28;20296;-69
2023/09/20 01:25:55;;;;;;;4.80;1.77;;;;;;;;;;5079296;28;20119;-69
2023/09/20 01:28:22;;;;;;;3.70;1.58;;;;;;;;;;5086294;28;20033;-68
2023/09/20 01:30:50;;;;;;;5.20;1.85;;;;;;;;;;5089520;28;20159;-69
2023/09/20 01:33:15;;;;;;;5.20;2.00;;;;;;;;;;5076764;28;20029;-68
2023/09/20 01:35:40;;;;;;;5.07;1.33;;;;;;;;;;5079251;28;20030;-69
2023/09/20 01:38:07;;;;;;;3.60;1.40;;;;;;;;;;5075547;28;20031;-68
2023/09/20 01:40:35;;;;;;;2.70;1.23;;;;;;;;;;5077259;28;20286;-68
2023/09/20 01:43:03;;;;;;;4.20;1.45;;;;;;;;;;5075684;28;20029;-68
2023/09/20 01:45:29;;;;;;;5.45;2.08;;;;;;;;;;5079211;28;20081;-68
2023/09/20 01:47:55;;;;;;;3.93;1.80;;;;;;;;;;5080691;28;20028;-69
2023/09/20 01:50:21;;;;;;;4.55;1.77;;;;;;;;;;5082259;28;20326;-69
2023/09/20 01:52:50;;;;;;;4.18;1.58;;;;;;;;;;5088803;28;20016;-68
2023/09/20 01:55:17;;;;;;;4.55;1.67;;;;;;;;;;5086276;28;20023;-68
2023/09/20 01:57:46;;;;;;;4.38;1.40;;;;;;;;;;5087667;28;20042;-69
2023/09/20 02:00:27;;;;;;;3.45;1.30;;;;;;;;;;5093316;28;20473;-68
2023/09/20 02:02:54;;;;;;;5.43;1.63;;;;;;;;;;5085703;28;20483;-68
2023/09/20 02:05:21;;;;;;;3.47;1.25;;;;;;;;;;5092280;28;20028;-68
2023/09/20 02:07:46;;;;;;;5.50;1.23;;;;;;;;;;5087704;28;20069;-68
2023/09/20 02:10:13;;;;;;;3.10;1.30;;;;;;;;;;5093434;28;20445;-69
2023/09/20 02:12:38;;;;;;;4.40;1.60;;;;;;;;;;5093208;28;20106;-68
2023/09/20 02:15:10;;;;;;;5.22;1.98;;;;;;;;;;5093538;28;20459;-69
2023/09/20 02:17:36;;;;;;;3.70;1.45;;;;;;;;;;5093387;28;20133;-68
2023/09/20 02:20:08;;;;;;;4.03;1.60;;;;;;;;;;5089018;28;20029;-68
2023/09/20 02:22:35;;;;;;;4.15;1.63;;;;;;;;;;5074318;28;20028;-68
2023/09/20 02:25:01;;;;;;;5.13;1.60;;;;;;;;;;5087525;28;20044;-68
2023/09/20 02:27:27;;;;;;;3.75;1.40;;;;;;;;;;5074156;28;20546;-68
2023/09/20 02:29:54;;;;;;;5.07;1.52;;;;;;;;;;5074346;28;20028;-68
2023/09/20 02:32:19;;;;;;;2.88;1.33;;;;;;;;;;5074141;28;20035;-68
2023/09/20 02:34:44;;;;;;;6.13;1.83;;;;;;;;;;5076584;28;20016;-75
2023/09/20 02:37:10;;;;;;;4.60;1.50;;;;;;;;;;5075223;28;20025;-67
2023/09/20 02:39:35;;;;;;;5.37;1.60;;;;;;;;;;5077465;28;20070;-67
2023/09/20 02:42:01;;;;;;;3.87;1.67;;;;;;;;;;5087572;28;20322;-67
2023/09/20 02:44:27;;;;;;;3.67;1.50;;;;;;;;;;5085563;28;20302;-67
2023/09/20 02:46:53;;;;;;;6.32;1.63;;;;;;;;;;5073878;28;20032;-67
2023/09/20 02:49:20;;;;;;;2.42;1.30;;;;;;;;;;5084483;28;20115;-66
2023/09/20 02:51:47;;;;;;;5.18;1.45;;;;;;;;;;5088988;28;20020;-69
2023/09/20 02:54:12;;;;;;;4.72;1.50;;;;;;;;;;5084109;28;20032;-69
2023/09/20 02:56:38;;;;;;;4.40;1.42;;;;;;;;;;5087281;28;20493;-69
2023/09/20 02:59:07;;;;;;;5.40;1.85;;;;;;;;;;5088409;28;20020;-69
2023/09/20 03:01:33;;;;;;;4.75;1.58;;;;;;;;;;5086945;28;20103;-69
2023/09/20 03:03:58;;;;;;;3.10;1.50;;;;;;;;;;5083786;28;20024;-69
2023/09/20 03:06:23;;;;;;;3.03;1.20;;;;;;;;;;5086592;28;20035;-69
2023/09/20 03:08:49;;;;;;;9.47;1.80;;;;;;;;;;5083554;28;20394;-69
2023/09/20 03:11:25;;;;;;;5.70;1.90;;;;;;;;;;5086183;28;20752;-69
2023/09/20 03:13:51;;;;;;;4.72;1.30;;;;;;;;;;5083460;28;20489;-69
2023/09/20 03:16:19;;;;;;;7.35;1.77;;;;;;;;;;5092085;28;20016;-69
2023/09/20 03:18:50;;;;;;;3.85;1.50;;;;;;;;;;5092509;28;20020;-69
2023/09/20 03:21:15;;;;;;;4.88;1.70;;;;;;;;;;5090107;28;20024;-70
2023/09/20 03:23:42;;;;;;;3.00;1.48;;;;;;;;;;5092740;28;20370;-70
2023/09/20 03:26:08;;;;;;;4.53;1.48;;;;;;;;;;5088118;28;20024;-69
2023/09/20 03:28:35;;;;;;;3.80;1.40;;;;;;;;;;5089153;28;20035;-69
2023/09/20 03:31:06;;;;;;;4.47;1.50;;;;;;;;;;5087382;28;20019;-70
2023/09/20 03:33:31;;;;;;;2.67;1.40;;;;;;;;;;5087785;28;20041;-70
2023/09/20 03:35:58;;;;;;;3.22;1.60;;;;;;;;;;5086868;28;20021;-70
2023/09/20 03:38:24;;;;;;;5.32;1.70;;;;;;;;;;5078981;28;20061;-70
2023/09/20 03:40:49;;;;;;;3.70;1.65;;;;;;;;;;5087062;28;20016;-69
2023/09/20 03:43:14;;;;;;;3.10;1.40;;;;;;;;;;5085111;28;20020;-69
2023/09/20 03:45:41;;;;;;;4.73;1.40;;;;;;;;;;5082805;28;20095;-69
2023/09/20 03:48:06;;;;;;;4.00;1.67;;;;;;;;;;5084642;28;20294;-69
2023/09/20 03:50:32;;;;;;;4.00;1.25;;;;;;;;;;5083309;28;20498;-69
2023/09/20 03:52:57;;;;;;;7.77;2.10;;;;;;;;;;5089095;28;20024;-70
2023/09/20 03:55:26;;;;;;;3.72;1.52;;;;;;;;;;5084366;28;20274;-68
2023/09/20 03:57:52;;;;;;;4.65;1.80;;;;;;;;;;5083991;28;20024;-68
2023/09/20 04:00:19;;;;;;;5.43;1.90;;;;;;;;;;5083266;28;20038;-68
2023/09/20 04:02:49;;;;;;;4.38;1.73;;;;;;;;;;5082494;28;20520;-68
2023/09/20 04:05:16;;;;;;;6.35;1.67;;;;;;;;;;5081573;28;20463;-68
2023/09/20 04:07:41;;;;;;;6.43;1.60;;;;;;;;;;5088160;28;20489;-69
2023/09/20 04:10:07;;;;;;;3.45;1.38;;;;;;;;;;5081360;28;20031;-70
2023/09/20 04:12:32;;;;;;;5.10;1.75;;;;;;;;;;5082704;28;20016;-70
2023/09/20 04:14:58;;;;;;;4.90;1.70;;;;;;;;;;5086412;28;20580;-70
2023/09/20 04:17:25;;;;;;;5.72;1.65;;;;;;;;;;5091347;28;20024;-72
2023/09/20 04:19:51;;;;;;;4.72;1.90;;;;;;;;;;5090561;28;20486;-69
2023/09/20 04:22:16;;;;;;;4.85;1.77;;;;;;;;;;5090789;28;20012;-70
2023/09/20 04:24:41;;;;;;;3.38;1.85;;;;;;;;;;5077259;28;20035;-68
2023/09/20 04:27:08;;;;;;;6.63;2.00;;;;;;;;;;5090636;28;20020;-67
2023/09/20 04:29:33;;;;;;;3.92;1.65;;;;;;;;;;5088950;28;20315;-69
2023/09/20 04:31:58;;;;;;;4.27;1.83;;;;;;;;;;5080422;28;20025;-67
2023/09/20 04:34:24;;;;;;;3.17;1.40;;;;;;;;;;5074426;28;20274;-69
2023/09/20 04:36:51;;;;;;;3.10;1.67;;;;;;;;;;5076144;28;20021;-69
2023/09/20 04:39:16;;;;;;;3.28;1.80;;;;;;;;;;5071945;28;20016;-67
2023/09/20 04:41:42;;;;;;;3.08;1.73;;;;;;;;;;5068819;28;20118;-68
2023/09/20 04:44:07;;;;;;;4.40;1.75;;;;;;;;;;5073573;28;20037;-68
2023/09/20 04:46:34;;;;;;;3.80;1.60;;;;;;;;;;5054747;28;20025;-69
2023/09/20 04:48:59;;;;;;;5.63;1.92;;;;;;;;;;5084317;28;20034;-68
2023/09/20 04:51:25;;;;;;;3.60;1.60;;;;;;;;;;5084162;28;20029;-69
2023/09/20 04:53:50;;;;;;;4.07;1.92;;;;;;;;;;5088718;28;20016;-69
2023/09/20 04:56:16;;;;;;;3.67;1.67;;;;;;;;;;5072963;28;20055;-69
2023/09/20 04:58:41;;;;;;;5.22;1.80;;;;;;;;;;5073317;28;20514;-69
2023/09/20 05:01:09;;;;;;;3.97;1.90;;;;;;;;;;5072225;28;20029;-68
2023/09/20 05:03:35;;;;;;;6.28;2.08;;;;;;;;;;5078560;28;20078;-68
2023/09/20 05:06:00;;;;;;;4.53;1.90;;;;;;;;;;5084684;28;20029;-68
2023/09/20 05:08:25;;;;;;;5.83;1.87;;;;;;;;;;5074782;28;20274;-68
2023/09/20 05:10:50;;;;;;;5.63;2.17;;;;;;;;;;5083987;28;20294;-68
2023/09/20 05:13:17;;;;;;;6.43;1.90;;;;;;;;;;5090145;28;20032;-69
2023/09/20 05:15:42;;;;;;;3.42;1.58;;;;;;;;;;5089809;28;20270;-69
2023/09/20 05:18:07;;;;;;;4.47;1.90;;;;;;;;;;5088737;28;20151;-69
2023/09/20 05:20:33;;;;;;;5.15;1.70;;;;;;;;;;5079763;28;20278;-69
2023/09/20 05:22:59;;;;;;;5.13;1.85;;;;;;;;;;5073179;28;20491;-69
2023/09/20 05:25:24;;;;;;;6.50;2.00;;;;;;;;;;5072028;28;20021;-69
2023/09/20 05:27:49;;;;;;;3.75;1.77;;;;;;;;;;5072896;28;20052;-69
2023/09/20 05:30:16;;;;;;;4.90;2.15;;;;;;;;;;5082569;28;20028;-69
2023/09/20 05:32:41;;;;;;;4.03;2.10;;;;;;;;;;5086129;28;20078;-69
2023/09/20 05:35:08;;;;;;;4.60;1.83;;;;;;;;;;5072343;28;20029;-69
2023/09/20 05:37:35;;;;;;;4.45;1.80;;;;;;;;;;5085062;28;20399;-69
2023/09/20 05:40:00;;;;;;;3.70;1.83;;;;;;;;;;5074662;28;20029;-69
2023/09/20 05:42:28;;;;;;;5.82;2.13;;;;;;;;;;5074799;28;20146;-69
2023/09/20 05:44:55;;;;;;;5.47;2.00;;;;;;;;;;5078034;28;20107;-69
2023/09/20 05:47:20;;;;;;;4.32;2.03;;;;;;;;;;5087295;28;20543;-69
2023/09/20 05:49:49;;;;;;;4.38;2.00;;;;;;;;;;5072343;28;20041;-69
2023/09/20 05:52:15;;;;;;;4.25;2.40;;;;;;;;;;5085769;28;20028;-69
2023/09/20 05:54:43;;;;;;;4.32;1.75;;;;;;;;;;5084765;28;20179;-69
2023/09/20 05:57:09;;;;;;;4.38;1.75;;;;;;;;;;5089390;28;20028;-69
2023/09/20 05:59:34;;;;;;;3.47;1.90;;;;;;;;;;5084474;28;20031;-69
2023/09/20 06:01:59;;;;;;;4.40;2.28;;;;;;;;;;5088828;28;20016;-69
2023/09/20 06:04:24;;;;;;;7.07;2.20;;;;;;;;;;5083208;28;20025;-69
2023/09/20 06:06:50;;;;;;;4.93;2.13;;;;;;;;;;5087948;28;20386;-68
2023/09/20 06:09:15;;;;;;;3.20;1.55;;;;;;;;;;5074904;28;20279;-69
2023/09/20 06:11:40;;;;;;;4.95;2.15;;;;;;;;;;5083681;28;20456;-68
2023/09/20 06:14:06;;;;;;;4.40;1.80;;;;;;;;;;5082217;28;20024;-69
2023/09/20 06:16:31;;;;;;;6.47;2.30;;;;;;;;;;5088158;28;20043;-69
2023/09/20 06:18:56;;;;;;;3.90;1.77;;;;;;;;;;5073655;28;20097;-68
2023/09/20 06:21:23;;;;;;;3.73;1.90;;;;;;;;;;5091498;28;20020;-68
2023/09/20 06:23:48;;;;;;;4.93;2.03;;;;;;;;;;5074821;28;20275;-69
2023/09/20 06:26:14;;;;;;;4.43;1.90;;;;;;;;;;5076205;28;20016;-69
2023/09/20 06:28:42;;;;;;;3.10;1.75;;;;;;;;;;5074537;28;20107;-68
2023/09/20 06:31:15;;;;;;;3.67;1.65;;;;;;;;;;5075498;28;20032;-69
2023/09/20 06:33:41;;;;;;;3.15;1.45;;;;;;;;;;5074464;28;20429;-68
2023/09/20 06:36:06;;;;;;;3.67;1.75;;;;;;;;;;5073830;28;20077;-68
2023/09/20 06:38:34;;;;;;;4.38;2.03;;;;;;;;;;5074449;28;20107;-68
2023/09/20 06:40:59;;;;;;;5.70;1.55;;;;;;;;;;5088215;28;20475;-69
2023/09/20 06:43:25;;;;;;;4.35;1.77;;;;;;;;;;5079404;28;20032;-68
2023/09/20 06:45:51;;;;;;;5.32;1.67;;;;;;;;;;5075117;28;20024;-68
2023/09/20 06:48:24;;;;;;;3.22;1.38;;;;;;;;;;5085515;28;20020;-68
2023/09/20 06:50:49;;;;;;;6.85;1.98;;;;;;;;;;5077305;28;20535;-68
2023/09/20 06:53:15;;;;;;;5.55;1.75;;;;;;;;;;5075587;28;20058;-70
2023/09/20 06:55:41;;;;;;;6.50;2.10;;;;;;;;;;5080563;28;20016;-69
2023/09/20 06:58:07;;;;;;;3.33;1.90;;;;;;;;;;5084340;28;20032;-69
2023/09/20 07:00:35;;;;;;;3.60;1.65;;;;;;;;;;5078811;28;20020;-70
2023/09/20 07:03:00;;;;;;;5.38;1.90;;;;;;;;;;5076082;28;20028;-69
2023/09/20 07:05:28;;;;;;;4.82;2.00;;;;;;;;;;5078821;28;20545;-68
2023/09/20 07:07:54;;;;;;;3.35;1.60;;;;;;;;;;5086347;28;20024;-68
2023/09/20 07:10:21;;;;;;;5.10;2.35;;;;;;;;;;5085962;28;20394;-69
2023/09/20 07:12:46;;;;;;;4.97;1.92;;;;;;;;;;5087393;28;20024;-68
2023/09/20 07:15:18;;;;;;;3.35;1.80;;;;;;;;;;5083677;28;20714;-68
2023/09/20 07:17:44;;;;;;;4.90;1.95;;;;;;;;;;5090219;28;20020;-68
2023/09/20 07:20:17;;;;;;;5.32;1.80;;;;;;;;;;5072260;28;20128;-68
2023/09/20 07:22:43;;;;;;;3.80;1.73;;;;;;;;;;5074686;28;20030;-69
2023/09/20 07:25:16;;;;;;;5.80;2.03;;;;;;;;;;5072780;28;20028;-69
2023/09/20 07:27:42;;;;;;;5.88;2.08;;;;;;;;;;5075383;28;20028;-69
2023/09/20 07:30:14;;;;;;;4.35;1.88;;;;;;;;;;5074791;28;20357;-69
2023/09/20 07:32:39;;;;;;;5.25;1.98;;;;;;;;;;5079030;28;20020;-69
2023/09/20 07:35:19;;;;;;;3.10;1.52;;;;;;;;;;5074902;28;20369;-70
2023/09/20 07:37:47;;;;;;;4.15;1.75;;;;;;;;;;5084585;28;20742;-69
2023/09/20 07:40:12;;;;;;;3.25;1.80;;;;;;;;;;5086280;28;20028;-69
2023/09/20 07:42:37;;;;;;;3.70;1.90;;;;;;;;;;5078922;28;20170;-68
2023/09/20 07:45:13;;;;;;;4.50;1.65;;;;;;;;;;5075209;28;20024;-68
2023/09/20 07:47:39;;;;;;;6.75;1.90;;;;;;;;;;5076572;28;20107;-69
2023/09/20 07:50:06;;;;;;;5.45;2.33;;;;;;;;;;5088498;28;20035;-67
2023/09/20 07:52:33;;;;;;;5.28;1.90;;;;;;;;;;5081586;28;20082;-69
2023/09/20 07:55:01;;;;;;;4.25;1.60;;;;;;;;;;5077630;28;20054;-68
2023/09/20 07:57:28;;;;;;;2.90;1.63;;;;;;;;;;5090221;28;20028;-68
2023/09/20 07:59:53;;;;;;;3.75;1.70;;;;;;;;;;5085202;28;20035;-69
2023/09/20 08:02:18;;;;;;;4.03;1.63;;;;;;;;;;5081813;28;20021;-69
2023/09/20 08:04:44;;;;;;;3.43;1.80;;;;;;;;;;5082119;28;20277;-69
2023/09/20 08:07:10;;;;;;;2.85;1.42;;;;;;;;;;5080162;28;20278;-69
2023/09/20 08:09:35;;;;;;;3.63;1.70;;;;;;;;;;5080696;28;20106;-69
2023/09/20 08:12:00;;;;;;;4.53;1.67;;;;;;;;;;5078589;28;20046;-69
2023/09/20 08:14:25;;;;;;;3.25;1.45;;;;;;;;;;5076400;28;20271;-68
2023/09/20 08:19:36;;;;;;;3.00;1.60;;;;;;;;;;5089005;28;21120;-70
2023/09/20 08:22:01;;;;;;;4.47;1.50;;;;;;;;;;5089812;28;20044;-69
2023/09/20 09:00:28;;;;;;;3.55;1.23;;;;;;;;;;5087834;28;20067;-68
2023/09/20 09:02:57;;;;;;;3.30;0.93;;;;;;;;;;5087799;28;20020;-67
2023/09/20 09:05:24;;;;;;;4.63;1.40;;;;;;;;;;5086532;28;20043;-67
2023/09/20 09:07:49;;;;;;;4.30;1.20;;;;;;;;;;5087102;28;20034;-67
2023/09/20 09:10:15;;;;;;;2.75;1.15;;;;;;;;;;5088592;28;20503;-66
2023/09/20 09:12:41;;;;;;;3.72;1.55;;;;;;;;;;5081085;28;20023;-68
2023/09/20 09:15:08;;;;;;;3.13;1.10;;;;;;;;;;5093093;28;20020;-69
2023/09/20 09:17:37;;;;;;;5.45;1.45;;;;;;;;;;5090231;28;20062;-68
2023/09/20 09:20:05;;;;;;;3.88;1.10;;;;;;;;;;5081058;28;20044;-66
2023/09/20 09:22:33;;;;;;;2.97;1.25;;;;;;;;;;5085736;28;20506;-68
2023/09/20 09:24:58;;;;;;;2.72;1.17;;;;;;;;;;5086722;28;20045;-68
2023/09/20 09:27:24;;;;;;;3.30;1.25;;;;;;;;;;5091085;28;20131;-68
2023/09/20 09:29:49;;;;;;;3.67;1.30;;;;;;;;;;5092342;28;20028;-68
2023/09/20 09:32:14;;;;;;;4.30;0.88;;;;;;;;;;5081128;28;20399;-68
2023/09/20 09:34:42;;;;;;;2.88;0.85;;;;;;;;;;5076451;28;20025;-68
2023/09/20 09:37:10;;;;;;;3.45;0.90;;;;;;;;;;5083473;28;20028;-67
2023/09/20 09:39:36;;;;;;;3.90;1.17;;;;;;;;;;5078132;28;20044;-68
2023/09/20 09:42:01;;;;;;;2.40;0.90;;;;;;;;;;5083962;28;20022;-68
2023/09/20 09:44:27;;;;;;;1.98;0.90;;;;;;;;;;5079449;28;20016;-68
2023/09/20 09:46:52;;;;;;;3.85;1.00;;;;;;;;;;5090814;28;20067;-68
2023/09/20 09:49:19;;;;;;;3.22;1.20;;;;;;;;;;5091450;28;20142;-67
2023/09/20 09:51:45;;;;;;;2.85;1.20;;;;;;;;;;5093140;28;20077;-68
2023/09/20 09:54:12;;;;;;;2.67;1.08;;;;;;;;;;5091898;28;20043;-68
2023/09/20 09:56:37;;;;;;;5.68;1.20;;;;;;;;;;5083360;28;20065;-69
2023/09/20 09:59:03;;;;;;;2.92;0.98;;;;;;;;;;5073758;28;20051;-68
2023/09/20 10:01:29;;;;;;;2.53;1.00;;;;;;;;;;5073835;28;20044;-68
2023/09/20 10:03:55;;;;;;;3.47;1.00;;;;;;;;;;5075024;28;20024;-68
2023/09/20 10:06:22;;;;;;;3.42;0.82;;;;;;;;;;5074272;28;20024;-68
2023/09/20 10:08:51;;;;;;;3.35;1.13;;;;;;;;;;5077845;28;20542;-67
2023/09/20 10:11:17;;;;;;;2.70;0.90;;;;;;;;;;5083582;28;20032;-67
2023/09/20 10:13:44;;;;;;;4.47;0.85;;;;;;;;;;5075946;28;20034;-67
2023/09/20 10:16:15;;;;;;;7.88;0.90;;;;;;;;;;5086148;28;20039;-67
2023/09/20 10:18:51;;;;;;;2.30;0.90;;;;;;;;;;5076680;28;20048;-68
2023/09/20 10:21:20;;;;;;;2.65;1.00;;;;;;;;;;5087112;28;20090;-68
2023/09/20 10:23:47;;;;;;;2.38;0.80;;;;;;;;;;5086061;28;20036;-68
2023/09/20 10:26:13;;;;;;;3.95;1.05;;;;;;;;;;5087928;28;20126;-68
2023/09/20 10:28:39;;;;;;;4.93;1.10;;;;;;;;;;5087564;28;20050;-68
2023/09/20 10:31:05;;;;;;;2.85;1.00;;;;;;;;;;5090647;28;20024;-68
2023/09/20 10:33:46;;;;;;;2.42;0.90;;;;;;;;;;5090534;28;20023;-67
2023/09/20 10:36:31;;;;;;;2.13;0.88;;;;;;;;;;5087820;28;20020;-68
2023/09/20 10:39:16;;;;;;;3.05;0.90;;;;;;;;;;5087406;28;20102;-68
2023/09/20 10:41:42;;;;;;;3.17;0.75;;;;;;;;;;5083708;28;20487;-68
2023/09/20 10:44:07;;;;;;;2.53;0.60;;;;;;;;;;5074542;28;20119;-68
2023/09/20 10:46:38;;;;;;;3.20;0.70;;;;;;;;;;5076053;28;20024;-68
2023/09/20 10:49:06;;;;;;;2.70;0.98;;;;;;;;;;5086372;28;20012;-68
2023/09/20 10:51:44;;;;;;;3.15;1.00;;;;;;;;;;5083859;28;20033;-68
2023/09/20 10:54:22;;;;;;;3.55;1.33;;;;;;;;;;5082670;28;20462;-67
2023/09/20 10:56:50;;;;;;;3.75;0.95;;;;;;;;;;5078717;28;20577;-64
2023/09/20 10:59:21;;;;;;;4.93;1.05;;;;;;;;;;5089095;28;20016;-68
2023/09/20 11:01:53;;;;;;;2.88;0.90;;;;;;;;;;5088568;28;20028;-67
2023/09/20 11:04:19;;;;;;;2.85;0.80;;;;;;;;;;5088342;28;20442;-68
2023/09/20 11:06:45;;;;;;;3.95;1.08;;;;;;;;;;5088526;28;20095;-67
2023/09/20 11:09:11;;;;;;;2.22;0.88;;;;;;;;;;5086707;28;20048;-68
2023/09/20 11:11:38;;;;;;;3.20;1.20;;;;;;;;;;5091679;28;20024;-68
2023/09/20 11:14:03;;;;;;;1.77;0.77;;;;;;;;;;5083030;28;20024;-69
2023/09/20 11:16:28;;;;;;;1.92;0.80;;;;;;;;;;5071977;28;20050;-68
2023/09/20 11:18:56;;;;;;;3.30;0.90;;;;;;;;;;5091357;28;20032;-68
2023/09/20 11:21:22;;;;;;;3.17;0.90;;;;;;;;;;5074053;28;20738;-69
2023/09/20 11:23:48;;;;;;;4.68;0.70;;;;;;;;;;5072007;28;20065;-67
2023/09/20 11:26:18;;;;;;;2.42;0.98;;;;;;;;;;5076525;28;20020;-68
2023/09/20 11:28:43;;;;;;;3.03;0.75;;;;;;;;;;5073222;28;20116;-68
2023/09/20 11:31:21;;;;;;;1.63;0.80;;;;;;;;;;5075417;28;20174;-68
2023/09/20 11:33:56;;;;;;;2.35;1.00;;;;;;;;;;5084420;28;20084;-68
2023/09/20 11:36:22;;;;;;;2.78;0.75;;;;;;;;;;5089008;28;20035;-68
2023/09/20 11:38:47;;;;;;;4.70;1.00;;;;;;;;;;5091072;28;20016;-69
2023/09/20 11:41:14;;;;;;;2.05;1.00;;;;;;;;;;5089023;28;20050;-68
2023/09/20 11:43:41;;;;;;;4.13;1.17;;;;;;;;;;5088621;28;20020;-68
2023/09/20 11:46:09;;;;;;;3.67;1.00;;;;;;;;;;5083423;28;20403;-68
2023/09/20 11:48:36;;;;;;;2.22;1.25;;;;;;;;;;5084268;28;20049;-68
2023/09/20 11:51:02;;;;;;;3.35;1.00;;;;;;;;;;5081805;28;20028;-66
2023/09/20 11:53:29;;;;;;;2.50;0.80;;;;;;;;;;5076449;28;20082;-68
2023/09/20 11:55:55;;;;;;;3.35;1.23;;;;;;;;;;5080627;28;20043;-68
2023/09/20 11:58:20;;;;;;;2.92;0.98;;;;;;;;;;5076774;28;20024;-68
2023/09/20 12:00:46;;;;;;;3.22;1.15;;;;;;;;;;5086409;28;20556;-69
2023/09/20 12:03:12;;;;;;;2.88;1.00;;;;;;;;;;5083043;28;20037;-68
2023/09/20 12:05:38;;;;;;;1.67;0.80;;;;;;;;;;5076009;28;20886;-68
2023/09/20 12:08:06;;;;;;;3.15;0.98;;;;;;;;;;5076255;28;20270;-68
2023/09/20 12:10:32;;;;;;;2.03;0.80;;;;;;;;;;5089524;28;20032;-68
2023/09/20 12:12:57;;;;;;;2.53;0.90;;;;;;;;;;5077595;28;20371;-68
2023/09/20 12:15:23;;;;;;;3.05;0.80;;;;;;;;;;5085181;28;20491;-68
2023/09/20 12:17:57;;;;;;;1.85;0.77;;;;;;;;;;5085342;28;20028;-68
2023/09/20 12:20:25;;;;;;;2.47;0.93;;;;;;;;;;5077953;28;20059;-68
2023/09/20 12:22:51;;;;;;;2.55;1.00;;;;;;;;;;5088083;28;20399;-68
2023/09/20 12:25:17;;;;;;;2.97;1.20;;;;;;;;;;5088435;28;20073;-68
2023/09/20 12:27:43;;;;;;;3.15;1.25;;;;;;;;;;5087277;28;20056;-68
2023/09/20 12:30:09;;;;;;;4.43;1.23;;;;;;;;;;5078288;28;20072;-68
2023/09/20 12:32:34;;;;;;;2.95;1.00;;;;;;;;;;5088274;28;20028;-68
2023/09/20 12:35:00;;;;;;;1.95;0.90;;;;;;;;;;5089265;28;20395;-68
2023/09/20 12:37:26;;;;;;;3.97;0.90;;;;;;;;;;5086340;28;20024;-68
2023/09/20 12:39:52;;;;;;;3.80;1.15;;;;;;;;;;5077722;28;20038;-68
2023/09/20 12:42:18;;;;;;;3.55;1.30;;;;;;;;;;5084860;28;20037;-67
2023/09/20 12:44:43;;;;;;;2.65;0.98;;;;;;;;;;5087946;28;20020;-68
2023/09/20 12:47:08;;;;;;;2.97;1.00;;;;;;;;;;5088069;28;20031;-68
2023/09/20 12:49:36;;;;;;;8.68;1.20;;;;;;;;;;5093161;28;20278;-68
2023/09/20 12:52:03;;;;;;;2.47;1.10;;;;;;;;;;5088896;28;20035;-68
2023/09/20 12:54:29;;;;;;;2.53;0.85;;;;;;;;;;5086622;28;20021;-68
2023/09/20 12:56:55;;;;;;;5.97;0.93;;;;;;;;;;5076001;28;20043;-68
2023/09/20 12:59:20;;;;;;;2.05;0.80;;;;;;;;;;5077720;28;20037;-66
2023/09/20 13:01:45;;;;;;;2.55;0.80;;;;;;;;;;5070035;28;20031;-65
2023/09/20 13:04:10;;;;;;;2.57;0.90;;;;;;;;;;5080420;28;20082;-67
2023/09/20 13:06:36;;;;;;;2.80;0.90;;;;;;;;;;5085278;28;20270;-66
2023/09/20 13:09:02;;;;;;;3.97;1.00;;;;;;;;;;5092365;28;20780;-66
2023/09/20 13:11:27;;;;;;;4.75;1.48;;;;;;;;;;5093763;28;20085;-67
2023/09/20 13:13:53;;;;;;;4.10;1.15;;;;;;;;;;5084002;28;20032;-66
2023/09/20 13:16:18;;;;;;;2.63;1.08;;;;;;;;;;5086517;28;20039;-65
2023/09/20 13:18:44;;;;;;;2.97;1.23;;;;;;;;;;5085491;28;20044;-68
2023/09/20 13:21:09;;;;;;;5.30;1.33;;;;;;;;;;5079054;28;20346;-67
2023/09/20 13:23:34;;;;;;;3.33;1.10;;;;;;;;;;5079883;28;20024;-67
2023/09/20 13:26:00;;;;;;;4.35;1.27;;;;;;;;;;5078266;28;20029;-65
2023/09/20 13:28:25;;;;;;;4.50;1.40;;;;;;;;;;5075688;28;20074;-67
2023/09/20 13:30:51;;;;;;;2.90;1.10;;;;;;;;;;5078956;28;20031;-66
2023/09/20 13:33:17;;;;;;;3.83;1.35;;;;;;;;;;5075315;28;20025;-66
2023/09/20 13:35:42;;;;;;;3.85;1.30;;;;;;;;;;5085372;28;20024;-65
2023/09/20 13:38:08;;;;;;;2.95;1.30;;;;;;;;;;5089760;28;20036;-66
2023/09/20 13:40:33;;;;;;;2.50;1.13;;;;;;;;;;5090104;28;20742;-70
2023/09/20 13:42:58;;;;;;;4.20;1.40;;;;;;;;;;5090346;28;20528;-69
2023/09/20 13:45:25;;;;;;;2.55;1.00;;;;;;;;;;5092640;28;20508;-69
2023/09/20 13:47:53;;;;;;;5.10;1.50;;;;;;;;;;5091969;28;20027;-69
2023/09/20 13:50:19;;;;;;;4.00;1.10;;;;;;;;;;5081376;28;20063;-68
2023/09/20 13:52:45;;;;;;;2.30;1.08;;;;;;;;;;5089248;28;20434;-68
2023/09/20 13:55:11;;;;;;;3.20;1.48;;;;;;;;;;5084327;28;20056;-69
2023/09/20 13:57:37;;;;;;;2.20;1.17;;;;;;;;;;5069704;28;20101;-67
2023/09/20 14:00:03;;;;;;;3.03;1.05;;;;;;;;;;5091174;28;20450;-69
2023/09/20 14:02:28;;;;;;;3.35;1.50;;;;;;;;;;5092092;28;20458;-68
2023/09/20 14:04:54;;;;;;;3.47;1.20;;;;;;;;;;5084674;28;20191;-68
2023/09/20 14:07:19;;;;;;;4.30;1.47;;;;;;;;;;5086408;28;20062;-68
2023/09/20 14:09:44;;;;;;;3.37;1.30;;;;;;;;;;5079328;28;20032;-69
2023/09/20 14:12:12;;;;;;;3.15;1.40;;;;;;;;;;5089268;28;20362;-68
2023/09/20 14:14:37;;;;;;;3.33;1.73;;;;;;;;;;5077739;28;21556;-69
2023/09/20 14:17:04;;;;;;;3.83;1.40;;;;;;;;;;5087251;28;20122;-68
2023/09/20 14:19:29;;;;;;;3.28;1.30;;;;;;;;;;5082074;28;20038;-67
2023/09/20 14:21:54;;;;;;;4.00;1.55;;;;;;;;;;5075794;28;20107;-68
2023/09/20 14:24:19;;;;;;;5.90;1.30;;;;;;;;;;5078717;28;20103;-67
2023/09/20 14:26:46;;;;;;;3.87;1.50;;;;;;;;;;5075907;28;20263;-67
2023/09/20 14:29:12;;;;;;;3.15;1.33;;;;;;;;;;5075706;28;20034;-67
2023/09/20 14:31:40;;;;;;;3.10;1.52;;;;;;;;;;5081266;28;20103;-68
2023/09/20 14:34:10;;;;;;;3.38;1.17;;;;;;;;;;5082376;28;20032;-68
2023/09/20 14:36:37;;;;;;;3.40;1.17;;;;;;;;;;5082497;28;20540;-68
2023/09/20 14:39:03;;;;;;;4.28;1.27;;;;;;;;;;5088295;28;20024;-67
2023/09/20 14:41:28;;;;;;;2.90;1.40;;;;;;;;;;5080275;28;20468;-69
2023/09/20 14:43:54;;;;;;;2.87;1.30;;;;;;;;;;5076502;28;20024;-68
2023/09/20 14:46:19;;;;;;;4.43;1.40;;;;;;;;;;5072838;28;20389;-67
2023/09/20 14:48:45;;;;;;;4.93;1.50;;;;;;;;;;5089140;28;20306;-68
2023/09/20 14:51:15;;;;;;;3.33;1.40;;;;;;;;;;5086205;28;20428;-67
2023/09/20 14:53:41;;;;;;;6.32;1.25;;;;;;;;;;5079611;28;20052;-68
2023/09/20 14:56:07;;;;;;;3.38;1.45;;;;;;;;;;5086666;28;20352;-67
2023/09/20 14:58:32;;;;;;;3.75;1.33;;;;;;;;;;5089297;28;20031;-67
2023/09/20 15:00:58;;;;;;;3.38;1.67;;;;;;;;;;5085660;28;20029;-67
2023/09/20 15:03:23;;;;;;;2.20;1.20;;;;;;;;;;5085721;28;20024;-67
2023/09/20 15:05:49;;;;;;;3.63;1.80;;;;;;;;;;5077617;28;20103;-67
2023/09/20 15:08:14;;;;;;;4.95;1.70;;;;;;;;;;5074779;28;20335;-67
2023/09/20 15:10:40;;;;;;;2.90;1.30;;;;;;;;;;5076417;28;20025;-68
2023/09/20 15:13:06;;;;;;;3.17;1.40;;;;;;;;;;5080160;28;20040;-68
2023/09/20 15:15:32;;;;;;;4.03;1.50;;;;;;;;;;5084985;28;20478;-68
2023/09/20 15:17:58;;;;;;;4.22;1.40;;;;;;;;;;5087942;28;20281;-65